createdAt,value
2019-01-19T00:00:03.440Z,7.47
2019-01-19T00:02:49.754Z,7.47
2019-01-19T00:05:37.677Z,6.63
2019-01-19T00:08:11.732Z,7.17
2019-01-19T00:10:55.269Z,5.70
2019-01-19T00:13:29.538Z,6.73
2019-01-19T00:16:07.036Z,5.67
2019-01-19T00:18:58.233Z,5.50
2019-01-19T00:21:41.126Z,7.00
2019-01-19T00:24:18.205Z,6.53
2019-01-19T00:26:52.481Z,7.57
2019-01-19T00:29:35.924Z,7.27
2019-01-19T00:32:16.409Z,6.50
2019-01-19T00:34:56.593Z,7.57
2019-01-19T00:37:28.101Z,6.50
2019-01-19T00:40:34.436Z,6.90
2019-01-19T00:43:04.209Z,6.37
2019-01-19T00:45:47.176Z,6.87
2019-01-19T00:48:21.345Z,6.07
2019-01-19T00:50:55.477Z,6.50
2019-01-19T00:53:32.834Z,5.80
2019-01-19T00:56:22.280Z,6.53
2019-01-19T00:58:59.465Z,6.30
2019-01-19T01:01:42.788Z,6.90
2019-01-19T01:04:26.334Z,5.97
2019-01-19T01:07:00.504Z,5.67
2019-01-19T01:09:40.909Z,7.10
2019-01-19T01:12:15.137Z,6.10
2019-01-19T01:14:55.345Z,7.13
2019-01-19T01:17:26.874Z,5.67
2019-01-19T01:20:07.312Z,5.93
2019-01-19T01:22:41.570Z,7.30
2019-01-19T01:25:19.130Z,6.03
2019-01-19T01:28:01.865Z,5.40
2019-01-19T01:30:36.189Z,5.50
2019-01-19T01:33:22.291Z,5.73
2019-01-19T01:36:10.506Z,6.40
2019-01-19T01:38:42.002Z,7.30
2019-01-19T01:41:43.567Z,5.90
2019-01-19T01:44:21.034Z,6.20
2019-01-19T01:47:13.813Z,6.30
2019-01-19T01:50:04.745Z,5.75
2019-01-19T01:52:38.988Z,6.40
2019-01-19T01:55:13.441Z,6.00
2019-01-19T01:57:44.805Z,6.35
2019-01-19T02:00:22.083Z,6.47
2019-01-19T02:02:53.577Z,5.72
2019-01-19T02:05:27.791Z,7.35
2019-01-19T02:08:25.088Z,6.72
2019-01-19T02:11:05.405Z,6.03
2019-01-19T02:14:00.720Z,5.90
2019-01-19T02:16:57.074Z,6.07
2019-01-19T02:19:36.757Z,6.13
2019-01-19T02:22:20.090Z,5.85
2019-01-19T02:24:54.517Z,5.95
2019-01-19T02:27:37.328Z,5.78
2019-01-19T02:30:23.684Z,4.90
2019-01-19T02:33:00.702Z,5.72
2019-01-19T02:35:34.987Z,5.95
2019-01-19T02:38:06.570Z,6.10
2019-01-19T02:40:43.636Z,5.33
2019-01-19T02:43:17.923Z,6.00
2019-01-19T02:45:52.143Z,5.65
2019-01-19T02:48:50.664Z,6.00
2019-01-19T02:51:36.832Z,6.25
2019-01-19T02:54:23.028Z,5.87
2019-01-19T02:57:02.665Z,4.45
2019-01-19T03:00:02.305Z,6.40
2019-01-19T03:02:39.341Z,5.50
2019-01-19T03:05:10.841Z,5.75
2019-01-19T03:07:42.366Z,5.12
2019-01-19T03:10:22.889Z,5.90
2019-01-19T03:12:54.405Z,5.80
2019-01-19T03:15:47.036Z,5.55
2019-01-19T03:18:42.602Z,6.78
2019-01-19T03:21:33.568Z,6.37
2019-01-19T03:24:13.598Z,6.03
2019-01-19T03:26:59.836Z,6.58
2019-01-19T03:29:43.146Z,6.25
2019-01-19T03:32:34.303Z,6.28
2019-01-19T03:35:23.625Z,6.33
2019-01-19T03:38:09.972Z,6.83
2019-01-19T03:40:49.681Z,6.40
2019-01-19T03:43:21.184Z,6.35
2019-01-19T03:45:55.568Z,6.80
2019-01-19T03:48:29.719Z,6.83
2019-01-19T03:51:03.824Z,6.80
2019-01-19T03:53:47.592Z,7.15
2019-01-19T03:56:35.468Z,7.08
2019-01-19T03:59:09.741Z,6.67
2019-01-19T04:01:46.341Z,6.55
2019-01-19T04:04:26.652Z,5.92
2019-01-19T04:07:14.656Z,5.40
2019-01-19T04:10:02.650Z,5.58
2019-01-19T04:12:45.839Z,6.10
2019-01-19T04:15:32.277Z,6.30
2019-01-19T04:18:15.544Z,6.00
2019-01-19T04:20:55.265Z,4.65
2019-01-19T04:23:23.692Z,5.08
2019-01-19T04:25:55.193Z,6.30
2019-01-19T04:28:24.212Z,5.85
2019-01-19T04:30:52.624Z,4.65
2019-01-19T04:33:21.063Z,5.25
2019-01-19T04:35:49.493Z,5.55
2019-01-19T04:38:17.923Z,5.47
2019-01-19T04:40:46.347Z,5.00
2019-01-19T04:43:14.760Z,5.33
2019-01-19T04:45:43.197Z,4.60
2019-01-19T04:48:11.616Z,4.97
2019-01-19T04:50:40.035Z,4.80
2019-01-19T04:53:08.454Z,4.53
2019-01-19T04:55:36.889Z,4.70
2019-01-19T04:58:05.313Z,4.75
2019-01-19T05:00:33.749Z,4.60
2019-01-19T05:03:02.233Z,5.03
2019-01-19T05:05:30.664Z,4.20
2019-01-19T05:07:59.077Z,4.70
2019-01-19T05:10:27.513Z,4.97
2019-01-19T05:12:55.935Z,4.97
2019-01-19T05:15:24.358Z,4.90
2019-01-19T05:17:52.973Z,5.00
2019-01-19T05:20:21.400Z,4.40
2019-01-19T05:22:49.828Z,4.55
2019-01-19T05:25:18.255Z,4.40
2019-01-19T05:27:46.677Z,4.90
2019-01-19T05:30:17.148Z,5.45
2019-01-19T05:32:45.568Z,4.37
2019-01-19T05:35:14.467Z,4.80
2019-01-19T05:37:42.952Z,5.25
2019-01-19T05:40:12.634Z,4.58
2019-01-19T05:42:41.071Z,5.58
2019-01-19T05:45:11.931Z,5.47
2019-01-19T05:47:40.363Z,5.20
2019-01-19T05:50:11.892Z,5.05
2019-01-19T05:52:40.316Z,4.85
2019-01-19T05:55:08.805Z,5.10
2019-01-19T05:57:37.240Z,5.75
2019-01-19T06:00:14.252Z,4.70
2019-01-19T06:02:42.685Z,5.28
2019-01-19T06:05:11.165Z,5.12
2019-01-19T06:07:41.487Z,5.00
2019-01-19T06:10:17.175Z,4.80
2019-01-19T06:12:45.690Z,5.47
2019-01-19T06:15:15.440Z,5.40
2019-01-19T06:17:43.937Z,5.80
2019-01-19T06:20:17.144Z,5.35
2019-01-19T06:22:45.741Z,5.87
2019-01-19T06:25:15.501Z,5.15
2019-01-19T06:27:44.009Z,5.08
2019-01-19T06:30:15.518Z,5.35
2019-01-19T06:32:43.946Z,5.45
2019-01-19T06:35:12.360Z,5.70
2019-01-19T06:37:40.820Z,5.37
2019-01-19T06:40:12.220Z,5.70
2019-01-19T06:42:40.654Z,5.05
2019-01-19T06:45:12.408Z,6.78
2019-01-19T06:47:40.908Z,7.08
2019-01-19T06:50:12.337Z,5.12
2019-01-19T06:52:40.793Z,5.42
2019-01-19T06:55:11.852Z,6.30
2019-01-19T06:57:40.280Z,5.35
2019-01-19T07:00:12.035Z,5.70
2019-01-19T07:02:40.533Z,6.17
2019-01-19T07:05:09.624Z,5.90
2019-01-19T07:07:38.037Z,5.42
2019-01-19T07:10:09.588Z,5.70
2019-01-19T07:12:38.020Z,6.37
2019-01-19T07:15:09.104Z,5.10
2019-01-19T07:17:37.688Z,5.90
2019-01-19T07:20:09.172Z,6.40
2019-01-19T07:22:37.593Z,6.00
2019-01-19T07:25:06.668Z,6.47
2019-01-19T07:27:35.092Z,5.97
2019-01-19T07:30:04.881Z,6.05
2019-01-19T07:32:33.299Z,5.50
2019-01-19T07:35:01.721Z,5.72
2019-01-19T07:37:30.224Z,5.95
2019-01-19T07:39:58.656Z,6.17
2019-01-19T07:42:27.081Z,5.75
2019-01-19T07:44:55.568Z,6.50
2019-01-19T07:47:24.253Z,5.83
2019-01-19T07:49:52.757Z,6.35
2019-01-19T07:52:21.169Z,6.37
2019-01-19T07:54:49.596Z,6.97
2019-01-19T07:57:18.007Z,7.75
2019-01-19T07:59:46.440Z,7.25
2019-01-19T08:02:14.865Z,7.05
2019-01-19T08:04:43.302Z,7.15
2019-01-19T08:07:17.244Z,7.45
2019-01-19T08:09:41.893Z,5.97
2019-01-19T08:12:10.302Z,6.33
2019-01-19T08:14:38.738Z,5.97
2019-01-19T08:17:07.157Z,7.05
2019-01-19T08:19:35.588Z,8.28
2019-01-19T08:22:04.102Z,8.53
2019-01-19T08:24:32.527Z,10.75
2019-01-19T08:27:00.967Z,19.30
2019-01-19T08:29:29.428Z,21.62
2019-01-19T08:31:57.861Z,17.23
2019-01-19T08:34:26.361Z,12.30
2019-01-19T08:36:54.788Z,9.70
2019-01-19T08:39:24.232Z,7.97
2019-01-19T08:41:52.663Z,9.67
2019-01-19T08:44:21.084Z,11.30
2019-01-19T08:46:49.514Z,10.13
2019-01-19T08:49:17.928Z,10.30
2019-01-19T08:51:46.363Z,10.90
2019-01-19T08:54:14.784Z,10.10
2019-01-19T08:56:43.233Z,15.40
2019-01-19T08:59:11.648Z,13.80
2019-01-19T09:01:42.124Z,11.77
2019-01-19T09:04:10.541Z,10.10
2019-01-19T09:06:38.977Z,9.13
2019-01-19T09:09:07.734Z,10.00
2019-01-19T09:11:36.228Z,9.93
2019-01-19T09:14:04.880Z,9.77
2019-01-19T09:16:39.558Z,10.10
2019-01-19T09:19:03.526Z,10.47
2019-01-19T09:21:31.954Z,9.27
2019-01-19T09:24:00.501Z,8.17
2019-01-19T09:26:28.928Z,6.53
2019-01-19T09:28:57.365Z,8.17
2019-01-19T09:31:25.765Z,7.00
2019-01-19T09:33:54.465Z,5.90
2019-01-19T09:36:22.949Z,4.93
2019-01-19T09:38:51.516Z,5.90
2019-01-19T09:41:19.932Z,8.47
2019-01-19T09:43:48.372Z,5.03
2019-01-19T09:46:16.997Z,5.30
2019-01-19T09:48:46.879Z,8.20
2019-01-19T09:51:16.496Z,6.50
2019-01-19T09:53:44.916Z,8.30
2019-01-19T09:56:13.335Z,6.67
2019-01-19T09:58:41.755Z,9.23
2019-01-19T10:01:10.168Z,8.07
2019-01-19T10:03:38.592Z,5.13
2019-01-19T10:06:07.013Z,6.93
2019-01-19T10:08:35.440Z,6.70
2019-01-19T10:11:04.517Z,6.00
2019-01-19T10:13:34.828Z,6.17
2019-01-19T10:16:03.300Z,4.17
2019-01-19T10:18:31.792Z,3.83
2019-01-19T10:21:00.196Z,5.10
2019-01-19T10:23:28.616Z,3.67
2019-01-19T10:25:57.033Z,4.20
2019-01-19T10:28:25.544Z,10.90
2019-01-19T10:30:54.043Z,3.30
2019-01-19T10:33:22.464Z,2.40
2019-01-19T10:35:50.943Z,3.90
2019-01-19T10:38:19.367Z,3.40
2019-01-19T10:40:47.774Z,4.80
2019-01-19T10:43:16.196Z,3.90
2019-01-19T10:45:44.613Z,1.80
2019-01-19T10:48:13.033Z,3.50
2019-01-19T10:50:41.464Z,4.30
2019-01-19T10:53:09.856Z,3.90
2019-01-19T10:55:38.350Z,4.07
2019-01-19T10:58:06.761Z,4.67
2019-01-19T11:00:35.716Z,3.97
2019-01-19T11:03:05.183Z,3.60
2019-01-19T11:05:33.789Z,3.50
2019-01-19T11:08:04.153Z,4.90
2019-01-19T11:10:33.905Z,3.27
2019-01-19T11:13:02.314Z,2.33
2019-01-19T11:15:30.737Z,3.93
2019-01-19T11:17:59.212Z,4.47
2019-01-19T11:20:29.674Z,1.67
2019-01-19T11:22:59.526Z,4.23
2019-01-19T11:25:28.016Z,4.50
2019-01-19T11:27:57.497Z,2.40
2019-01-19T11:30:31.448Z,3.07
2019-01-19T11:32:59.855Z,4.80
2019-01-19T11:35:28.948Z,4.57
2019-01-19T11:37:57.530Z,5.80
2019-01-19T11:40:33.880Z,4.00
2019-01-19T11:43:02.451Z,4.77
2019-01-19T11:45:30.912Z,4.63
2019-01-19T11:47:59.331Z,4.10
2019-01-19T11:50:27.778Z,4.80
2019-01-19T11:52:56.193Z,2.10
2019-01-19T11:55:25.171Z,3.90
2019-01-19T11:57:56.288Z,4.67
2019-01-19T12:00:27.314Z,4.27
2019-01-19T12:02:55.962Z,1.97
2019-01-19T12:05:26.350Z,2.97
2019-01-19T12:07:54.929Z,4.20
2019-01-19T12:10:30.824Z,3.63
2019-01-19T12:12:59.345Z,2.40
2019-01-19T12:15:28.061Z,2.10
2019-01-19T12:17:56.712Z,2.17
2019-01-19T12:20:27.668Z,3.37
2019-01-19T12:22:56.105Z,4.70
2019-01-19T12:25:25.545Z,3.73
2019-01-19T12:27:54.100Z,2.50
2019-01-19T12:30:25.592Z,3.63
2019-01-19T12:32:54.276Z,4.07
2019-01-19T12:35:22.800Z,2.13
2019-01-19T12:37:51.224Z,4.90
2019-01-19T12:40:59.724Z,3.20
2019-01-19T12:43:47.474Z,3.13
2019-01-19T12:46:35.340Z,2.60
2019-01-19T12:49:23.103Z,3.90
2019-01-19T12:52:10.860Z,2.77
2019-01-19T12:54:58.614Z,3.87
2019-01-19T12:57:46.421Z,4.47
2019-01-19T13:00:34.232Z,3.90
2019-01-19T13:03:22.014Z,3.57
2019-01-19T13:06:30.509Z,4.37
2019-01-19T13:09:18.258Z,5.13
2019-01-19T13:12:26.793Z,4.50
2019-01-19T13:15:35.599Z,4.43
2019-01-19T13:18:42.694Z,3.57
2019-01-19T13:21:49.770Z,2.97
2019-01-19T13:24:30.534Z,3.47
2019-01-19T13:27:11.291Z,2.60
2019-01-19T13:29:52.338Z,4.20
2019-01-19T13:33:00.838Z,2.67
2019-01-19T13:36:09.546Z,2.40
2019-01-19T13:39:16.644Z,3.13
2019-01-19T13:42:23.721Z,1.90
2019-01-19T13:45:30.816Z,2.30
2019-01-19T13:48:39.338Z,1.90
2019-01-19T13:51:46.416Z,2.60
2019-01-19T13:54:53.512Z,2.33
2019-01-19T13:58:01.986Z,2.50
2019-01-19T14:01:10.496Z,2.60
2019-01-19T14:04:17.594Z,2.10
2019-01-19T14:07:24.699Z,1.53
2019-01-19T14:10:31.794Z,1.97
2019-01-19T14:13:40.296Z,2.10
2019-01-19T14:16:48.821Z,2.50
2019-01-19T14:19:55.928Z,7.00
2019-01-19T14:22:36.947Z,7.87
2019-01-19T14:25:18.001Z,23.27
2019-01-19T14:27:58.742Z,6.00
2019-01-19T14:30:39.625Z,3.40
2019-01-19T14:33:20.241Z,4.40
2019-01-19T14:36:00.978Z,3.33
2019-01-19T14:38:41.886Z,3.70
2019-01-19T14:41:22.503Z,4.97
2019-01-19T14:44:03.194Z,6.30
2019-01-19T14:46:43.953Z,5.80
2019-01-19T14:49:24.954Z,5.50
2019-01-19T14:52:05.950Z,4.90
2019-01-19T14:54:47.245Z,7.10
2019-01-19T14:57:55.730Z,7.93
2019-01-19T15:01:04.225Z,4.80
2019-01-19T15:04:12.702Z,5.57
2019-01-19T15:07:19.795Z,5.90
2019-01-19T15:10:26.887Z,2.97
2019-01-19T15:13:35.366Z,2.30
2019-01-19T15:16:42.465Z,2.43
2019-01-19T15:19:49.561Z,2.33
2019-01-19T15:22:30.544Z,2.30
2019-01-19T15:25:39.069Z,3.47
2019-01-19T15:28:46.162Z,3.30
2019-01-19T15:31:54.640Z,2.90
2019-01-19T15:35:01.792Z,5.70
2019-01-19T15:38:08.895Z,5.80
2019-01-19T15:41:16.014Z,6.37
2019-01-19T15:44:23.089Z,5.10
2019-01-19T15:47:30.202Z,5.70
2019-01-19T15:50:37.292Z,4.10
2019-01-19T15:53:44.396Z,3.80
2019-01-19T15:56:51.502Z,5.07
2019-01-19T15:59:58.580Z,4.53
2019-01-19T16:03:07.074Z,4.10
2019-01-19T16:06:14.327Z,3.80
2019-01-19T16:09:21.482Z,3.60
2019-01-19T16:12:29.974Z,3.40
2019-01-19T16:15:37.082Z,3.60
2019-01-19T16:18:44.169Z,3.30
2019-01-19T16:21:51.274Z,3.33
2019-01-19T16:24:32.097Z,4.50
2019-01-19T16:27:13.076Z,4.20
2019-01-19T16:29:53.917Z,3.93
2019-01-19T16:32:34.778Z,3.77
2019-01-19T16:35:15.977Z,4.00
2019-01-19T16:37:56.897Z,4.67
2019-01-19T16:40:37.626Z,3.70
2019-01-19T16:43:17.951Z,4.80
2019-01-19T16:45:58.975Z,4.00
2019-01-19T16:48:39.521Z,3.90
2019-01-19T16:51:19.810Z,4.80
2019-01-19T16:54:27.074Z,4.17
2019-01-19T16:57:35.575Z,3.70
2019-01-19T17:00:42.680Z,3.20
2019-01-19T17:03:49.954Z,2.97
2019-01-19T17:06:57.040Z,3.67
2019-01-19T17:10:05.562Z,4.00
2019-01-19T17:13:12.709Z,4.00
2019-01-19T17:16:19.883Z,4.63
2019-01-19T17:19:28.389Z,5.40
2019-01-19T17:22:36.911Z,4.43
2019-01-19T17:25:45.398Z,4.30
2019-01-19T17:28:52.484Z,4.50
2019-01-19T17:32:00.989Z,4.20
2019-01-19T17:35:08.075Z,4.90
2019-01-19T17:38:16.566Z,4.60
2019-01-19T17:41:23.654Z,4.20
2019-01-19T17:44:32.138Z,4.50
2019-01-19T17:47:39.237Z,4.60
2019-01-19T17:50:47.734Z,6.63
2019-01-19T17:53:54.822Z,5.70
2019-01-19T17:57:01.914Z,5.20
2019-01-19T18:00:09.221Z,4.73
2019-01-19T18:03:17.716Z,4.80
2019-01-19T18:06:24.802Z,5.87
2019-01-19T18:09:33.286Z,5.00
2019-01-19T18:12:40.370Z,4.27
2019-01-19T18:15:47.679Z,3.97
2019-01-19T18:18:37.061Z,5.00
2019-01-19T18:21:44.153Z,3.93
2019-01-19T18:24:25.997Z,5.03
2019-01-19T18:27:07.337Z,4.10
2019-01-19T18:29:47.618Z,4.50
2019-01-19T18:32:28.668Z,4.23
2019-01-19T18:35:09.121Z,5.00
2019-01-19T18:38:01.464Z,5.40
2019-01-19T18:40:52.372Z,4.20
2019-01-19T18:43:29.596Z,4.93
2019-01-19T18:46:28.233Z,4.77
2019-01-19T18:49:26.631Z,4.77
2019-01-19T18:52:01.118Z,5.40
2019-01-19T18:54:51.897Z,4.80
2019-01-19T18:57:44.439Z,5.50
2019-01-19T19:00:18.891Z,4.80
2019-01-19T19:03:11.354Z,5.10
2019-01-19T19:05:45.590Z,5.23
2019-01-19T19:08:19.671Z,4.73
2019-01-19T19:11:13.630Z,4.80
2019-01-19T19:14:00.031Z,4.90
2019-01-19T19:16:46.477Z,4.90
2019-01-19T19:19:26.754Z,5.10
2019-01-19T19:21:58.262Z,5.70
2019-01-19T19:24:32.675Z,5.83
2019-01-19T19:27:09.772Z,6.10
2019-01-19T19:30:14.661Z,7.67
2019-01-19T19:33:02.868Z,7.80
2019-01-19T19:35:45.778Z,6.70
2019-01-19T19:38:47.619Z,6.83
2019-01-19T19:41:30.922Z,7.87
2019-01-19T19:44:14.275Z,7.30
2019-01-19T19:46:45.795Z,7.53
2019-01-19T19:49:20.185Z,7.70
2019-01-19T19:52:01.950Z,11.95
2019-01-19T19:54:30.463Z,8.28
2019-01-19T19:56:59.438Z,9.25
2019-01-19T19:59:27.886Z,7.17
2019-01-19T20:01:56.358Z,6.42
2019-01-19T20:04:25.544Z,6.80
2019-01-19T20:06:54.110Z,7.10
2019-01-19T20:09:22.623Z,6.63
2019-01-19T20:11:51.415Z,6.20
2019-01-19T20:14:19.862Z,7.15
2019-01-19T20:16:48.361Z,6.92
2019-01-19T20:19:16.812Z,6.65
2019-01-19T20:21:45.312Z,7.20
2019-01-19T20:24:13.759Z,9.08
2019-01-19T20:26:42.183Z,9.10
2019-01-19T20:29:10.622Z,6.47
2019-01-19T20:31:39.085Z,6.45
2019-01-19T20:34:07.523Z,6.35
2019-01-19T20:36:35.970Z,8.45
2019-01-19T20:39:06.423Z,12.82
2019-01-19T20:41:34.870Z,24.60
2019-01-19T20:44:03.387Z,17.35
2019-01-19T20:46:31.831Z,8.90
2019-01-19T20:49:00.331Z,7.90
2019-01-19T20:51:28.854Z,9.15
2019-01-19T20:53:57.355Z,12.30
2019-01-19T20:56:25.806Z,11.50
2019-01-19T20:58:54.320Z,14.75
2019-01-19T21:01:22.771Z,13.83
2019-01-19T21:03:51.202Z,16.57
2019-01-19T21:06:19.647Z,14.40
2019-01-19T21:08:48.093Z,14.50
2019-01-19T21:11:16.535Z,14.10
2019-01-19T21:13:44.979Z,12.28
2019-01-19T21:16:13.430Z,13.78
2019-01-19T21:18:41.864Z,12.55
2019-01-19T21:21:10.334Z,15.55
2019-01-19T21:23:38.834Z,11.80
2019-01-19T21:26:07.354Z,13.20
2019-01-19T21:28:35.848Z,14.15
2019-01-19T21:31:04.441Z,14.70
2019-01-19T21:33:32.877Z,12.20
2019-01-19T21:36:01.369Z,11.55
2019-01-19T21:38:29.803Z,12.80
2019-01-19T21:40:58.311Z,11.45
2019-01-19T21:43:26.774Z,8.05
2019-01-19T21:45:55.207Z,7.78
2019-01-19T21:48:23.659Z,7.28
2019-01-19T21:50:52.094Z,7.70
2019-01-19T21:53:20.558Z,7.62
2019-01-19T21:55:49.050Z,6.70
2019-01-19T21:58:17.534Z,7.85
2019-01-19T22:00:45.979Z,7.50
2019-01-19T22:03:14.421Z,7.10
2019-01-19T22:05:49.478Z,7.25
2019-01-19T22:08:13.076Z,7.45
2019-01-19T22:10:46.290Z,7.08
2019-01-19T22:13:11.943Z,7.35
2019-01-19T22:15:40.367Z,6.05
2019-01-19T22:18:08.810Z,6.62
2019-01-19T22:20:37.246Z,6.95
2019-01-19T22:23:05.725Z,6.40
2019-01-19T22:25:34.164Z,6.87
2019-01-19T22:28:02.679Z,6.33
2019-01-19T22:30:31.283Z,7.37
2019-01-19T22:32:59.912Z,7.40
2019-01-19T22:35:28.831Z,6.05
2019-01-19T22:37:57.278Z,6.72
2019-01-19T22:40:25.717Z,7.05
2019-01-19T22:42:54.903Z,6.55
2019-01-19T22:45:23.326Z,6.70
2019-01-19T22:47:51.768Z,6.95
2019-01-19T22:50:20.210Z,6.65
2019-01-19T22:52:48.662Z,7.30
2019-01-19T22:55:17.254Z,7.78
2019-01-19T22:57:45.706Z,7.97
2019-01-19T23:00:27.566Z,8.13
2019-01-19T23:02:55.991Z,7.12
2019-01-19T23:05:24.429Z,6.47
2019-01-19T23:07:52.860Z,6.60
2019-01-19T23:10:21.323Z,6.30
2019-01-19T23:12:49.823Z,7.58
2019-01-19T23:15:18.333Z,7.78
2019-01-19T23:17:46.760Z,6.60
2019-01-19T23:20:15.442Z,7.30
2019-01-19T23:22:43.882Z,7.45
2019-01-19T23:25:12.338Z,6.95
2019-01-19T23:27:40.770Z,6.53
2019-01-19T23:30:14.560Z,7.12
2019-01-19T23:32:43.016Z,6.37
2019-01-19T23:35:11.450Z,7.50
2019-01-19T23:37:39.989Z,7.45
2019-01-19T23:40:11.585Z,7.25
2019-01-19T23:42:46.902Z,8.30
2019-01-19T23:45:10.655Z,7.15
2019-01-19T23:47:39.127Z,7.30
2019-01-19T23:50:09.353Z,7.50
2019-01-19T23:52:37.781Z,9.05
2019-01-19T23:55:06.962Z,10.43
2019-01-19T23:57:35.625Z,9.70
